Time;durP1;ratioP1;P1;durP2;ratioP2;P2;SDS_P1;SDS_P2;PMS_P1;PMS_P2;Temp;Humidity;BMP_temperature;BMP_pressure;BME280_temperature;BME280_humidity;BME280_pressure;Samples;Min_cycle;Max_cycle;Signal;HPM_P1;HPM_P2
2023/02/28 00:01:19;;;;;;;4.03;3.63;;;;;;;;;;5085181;28;20250;-49
2023/02/28 00:03:46;;;;;;;3.20;2.90;;;;;;;;;;5080401;28;20606;-49
2023/02/28 00:06:12;;;;;;;4.57;3.40;;;;;;;;;;5084492;28;20176;-49
2023/02/28 00:08:38;;;;;;;3.47;2.90;;;;;;;;;;5079451;28;20180;-49
2023/02/28 00:11:10;;;;;;;3.60;2.80;;;;;;;;;;5086808;28;20294;-49
2023/02/28 00:13:42;;;;;;;3.03;2.57;;;;;;;;;;5082290;28;20266;-50
2023/02/28 00:16:09;;;;;;;3.20;2.90;;;;;;;;;;5084084;28;20214;-49
2023/02/28 00:18:36;;;;;;;3.30;2.97;;;;;;;;;;5083661;28;20538;-50
2023/02/28 00:21:02;;;;;;;2.57;2.37;;;;;;;;;;5071571;28;20223;-49
2023/02/28 00:23:28;;;;;;;4.30;3.33;;;;;;;;;;5089498;28;20658;-49
2023/02/28 00:25:55;;;;;;;3.50;2.90;;;;;;;;;;5084431;28;20188;-49
2023/02/28 00:28:21;;;;;;;3.57;3.00;;;;;;;;;;5088214;28;20186;-49
2023/02/28 00:30:47;;;;;;;3.30;3.00;;;;;;;;;;5084397;28;20205;-49
2023/02/28 00:33:13;;;;;;;2.90;2.60;;;;;;;;;;5073303;28;20267;-49
2023/02/28 00:35:39;;;;;;;2.90;2.50;;;;;;;;;;5085397;28;20211;-49
2023/02/28 00:38:05;;;;;;;4.47;3.10;;;;;;;;;;5083100;28;20631;-49
2023/02/28 00:40:32;;;;;;;4.20;2.97;;;;;;;;;;5079888;28;20183;-49
2023/02/28 00:42:58;;;;;;;3.33;2.90;;;;;;;;;;5080100;28;20644;-50
2023/02/28 00:45:24;;;;;;;4.20;2.83;;;;;;;;;;5081867;28;20176;-49
2023/02/28 00:47:50;;;;;;;3.83;3.10;;;;;;;;;;5084789;28;20404;-49
2023/02/28 00:50:20;;;;;;;4.03;3.13;;;;;;;;;;5083838;28;20175;-49
2023/02/28 00:52:46;;;;;;;3.73;2.97;;;;;;;;;;5082023;28;20203;-50
2023/02/28 00:55:12;;;;;;;6.27;3.17;;;;;;;;;;5080700;28;20183;-52
2023/02/28 00:57:38;;;;;;;3.20;2.90;;;;;;;;;;5086015;28;20270;-49
2023/02/28 01:00:05;;;;;;;3.90;2.67;;;;;;;;;;5084131;28;20183;-49
2023/02/28 01:02:31;;;;;;;3.10;2.70;;;;;;;;;;5083027;28;20254;-49
2023/02/28 01:04:57;;;;;;;5.53;3.03;;;;;;;;;;5081301;28;20180;-49
2023/02/28 01:07:23;;;;;;;3.63;2.93;;;;;;;;;;5090082;28;20176;-49
2023/02/28 01:09:49;;;;;;;3.90;3.03;;;;;;;;;;5085989;28;20190;-49
2023/02/28 01:12:16;;;;;;;3.30;3.00;;;;;;;;;;5075858;28;20242;-49
2023/02/28 01:14:42;;;;;;;5.57;3.50;;;;;;;;;;5079298;28;20195;-49
2023/02/28 01:17:08;;;;;;;3.37;3.07;;;;;;;;;;5079575;28;20720;-50
2023/02/28 01:19:35;;;;;;;3.87;3.30;;;;;;;;;;5078862;28;20541;-49
2023/02/28 01:22:02;;;;;;;3.57;2.73;;;;;;;;;;5080976;28;20560;-49
2023/02/28 01:24:28;;;;;;;3.93;2.60;;;;;;;;;;5085307;28;20226;-50
2023/02/28 01:26:54;;;;;;;3.40;3.10;;;;;;;;;;5084013;28;20188;-49
2023/02/28 01:29:20;;;;;;;3.30;2.93;;;;;;;;;;5084211;28;20172;-49
2023/02/28 01:31:46;;;;;;;3.00;2.70;;;;;;;;;;5079194;28;20188;-49
2023/02/28 01:34:12;;;;;;;4.30;3.40;;;;;;;;;;5071268;28;20430;-49
2023/02/28 01:36:38;;;;;;;5.07;3.20;;;;;;;;;;5086667;28;20188;-50
2023/02/28 01:39:04;;;;;;;3.70;3.20;;;;;;;;;;5088141;28;20180;-49
2023/02/28 01:41:31;;;;;;;3.50;3.00;;;;;;;;;;5090555;28;20967;-49
2023/02/28 01:43:58;;;;;;;4.27;3.27;;;;;;;;;;5089590;28;20536;-49
2023/02/28 01:46:25;;;;;;;4.20;3.00;;;;;;;;;;5086217;28;20183;-48
2023/02/28 01:48:54;;;;;;;3.63;3.27;;;;;;;;;;5083361;28;20191;-50
2023/02/28 01:51:27;;;;;;;4.00;3.47;;;;;;;;;;5084471;28;20422;-51
2023/02/28 01:53:54;;;;;;;3.70;2.83;;;;;;;;;;5085741;28;20666;-49
2023/02/28 01:56:23;;;;;;;3.63;2.43;;;;;;;;;;5088488;28;20183;-49
2023/02/28 01:58:52;;;;;;;4.93;3.33;;;;;;;;;;5079752;28;20176;-49
2023/02/28 02:01:21;;;;;;;4.43;3.10;;;;;;;;;;5087229;28;20208;-49
2023/02/28 02:03:55;;;;;;;5.40;3.10;;;;;;;;;;5089074;28;20626;-49
2023/02/28 02:06:22;;;;;;;3.50;2.60;;;;;;;;;;5089469;28;20195;-49
2023/02/28 02:08:48;;;;;;;3.40;2.73;;;;;;;;;;5090920;28;20176;-50
2023/02/28 02:11:14;;;;;;;3.90;2.73;;;;;;;;;;5085722;28;20208;-50
2023/02/28 02:13:59;;;;;;;3.20;2.80;;;;;;;;;;5089477;28;20207;-49
2023/02/28 02:16:37;;;;;;;3.60;3.03;;;;;;;;;;5074467;28;20187;-49
2023/02/28 02:19:19;;;;;;;4.53;2.87;;;;;;;;;;5081618;28;20535;-50
2023/02/28 02:22:04;;;;;;;4.20;3.07;;;;;;;;;;5083008;28;20203;-49
2023/02/28 02:24:35;;;;;;;5.30;2.90;;;;;;;;;;5084329;28;20696;-49
2023/02/28 02:27:11;;;;;;;4.50;2.80;;;;;;;;;;5074764;28;20947;-49
2023/02/28 02:29:46;;;;;;;3.37;2.87;;;;;;;;;;5080619;28;20172;-49
2023/02/28 02:32:18;;;;;;;3.00;2.67;;;;;;;;;;5088250;28;20432;-50
2023/02/28 02:34:59;;;;;;;3.07;2.73;;;;;;;;;;5081381;28;20448;-49
2023/02/28 02:37:31;;;;;;;3.20;2.90;;;;;;;;;;5086083;28;20921;-49
2023/02/28 02:39:59;;;;;;;4.27;2.60;;;;;;;;;;5085941;28;20184;-49
2023/02/28 02:42:29;;;;;;;3.47;2.53;;;;;;;;;;5086311;28;20457;-49
2023/02/28 02:45:06;;;;;;;3.33;3.03;;;;;;;;;;5081607;28;20483;-49
2023/02/28 02:47:32;;;;;;;3.40;2.67;;;;;;;;;;5080011;28;20425;-52
2023/02/28 02:50:00;;;;;;;2.93;2.70;;;;;;;;;;5087384;28;20430;-49
2023/02/28 02:52:32;;;;;;;2.93;2.70;;;;;;;;;;5089635;28;20620;-49
2023/02/28 02:54:59;;;;;;;4.77;2.80;;;;;;;;;;5081562;28;20453;-49
2023/02/28 02:57:30;;;;;;;4.60;3.23;;;;;;;;;;5080872;28;20186;-50
2023/02/28 02:59:57;;;;;;;2.70;2.47;;;;;;;;;;5081473;28;20426;-49
2023/02/28 03:02:25;;;;;;;3.30;2.87;;;;;;;;;;5076592;28;21184;-49
2023/02/28 03:05:00;;;;;;;3.60;2.67;;;;;;;;;;5078259;28;20436;-49
2023/02/28 03:07:26;;;;;;;4.93;2.70;;;;;;;;;;5090267;28;20464;-50
2023/02/28 03:09:53;;;;;;;3.50;2.67;;;;;;;;;;5086929;28;20414;-49
2023/02/28 03:12:19;;;;;;;4.47;2.90;;;;;;;;;;5094689;28;20503;-50
2023/02/28 03:14:57;;;;;;;3.23;2.97;;;;;;;;;;5080250;28;20234;-51
2023/02/28 03:17:29;;;;;;;4.30;2.70;;;;;;;;;;5085941;28;20429;-49
2023/02/28 03:20:08;;;;;;;3.63;2.90;;;;;;;;;;5085167;28;20430;-49
2023/02/28 03:22:53;;;;;;;3.37;2.30;;;;;;;;;;5090907;28;20456;-55
2023/02/28 03:25:19;;;;;;;3.93;2.90;;;;;;;;;;5085968;28;20516;-49
2023/02/28 03:28:05;;;;;;;3.93;2.63;;;;;;;;;;5085553;28;20426;-49
2023/02/28 03:30:34;;;;;;;3.03;2.57;;;;;;;;;;5087397;28;20172;-49
2023/02/28 03:33:04;;;;;;;3.97;2.40;;;;;;;;;;5085016;28;20426;-49
2023/02/28 03:35:36;;;;;;;4.60;3.20;;;;;;;;;;5088446;28;20449;-50
2023/02/28 03:38:13;;;;;;;2.87;2.40;;;;;;;;;;5089320;28;20433;-49
2023/02/28 03:40:41;;;;;;;3.00;2.07;;;;;;;;;;5082602;28;20468;-49
2023/02/28 03:43:11;;;;;;;2.53;2.30;;;;;;;;;;5089211;28;20409;-50
2023/02/28 03:45:38;;;;;;;3.40;2.57;;;;;;;;;;5089464;28;20513;-49
2023/02/28 03:48:07;;;;;;;4.20;2.73;;;;;;;;;;5088007;28;20700;-49
2023/02/28 03:50:36;;;;;;;2.53;2.20;;;;;;;;;;5088904;28;20414;-50
2023/02/28 03:53:05;;;;;;;3.27;2.53;;;;;;;;;;5089100;28;20436;-49
2023/02/28 03:55:34;;;;;;;2.63;2.33;;;;;;;;;;5081334;28;20599;-49
2023/02/28 03:58:11;;;;;;;2.73;2.40;;;;;;;;;;5081124;28;20427;-49
2023/02/28 04:00:39;;;;;;;3.53;2.33;;;;;;;;;;5083530;28;20430;-49
2023/02/28 04:03:05;;;;;;;3.73;3.07;;;;;;;;;;5084224;28;21169;-49
2023/02/28 04:05:32;;;;;;;2.97;2.53;;;;;;;;;;5087401;28;20494;-49
2023/02/28 04:08:04;;;;;;;3.10;2.47;;;;;;;;;;5087695;28;20473;-50
2023/02/28 04:10:30;;;;;;;4.13;2.80;;;;;;;;;;5089828;28;20419;-49
2023/02/28 04:12:56;;;;;;;2.43;2.23;;;;;;;;;;5087062;28;20424;-49
2023/02/28 04:15:24;;;;;;;2.57;2.37;;;;;;;;;;5090146;28;20779;-49
2023/02/28 04:17:50;;;;;;;3.67;2.60;;;;;;;;;;5083284;28;20414;-49
2023/02/28 04:20:16;;;;;;;3.00;2.60;;;;;;;;;;5093248;28;20421;-49
2023/02/28 04:22:42;;;;;;;3.63;2.37;;;;;;;;;;5088354;28;20468;-49
2023/02/28 04:25:08;;;;;;;3.33;2.40;;;;;;;;;;5085495;28;20426;-49
2023/02/28 04:27:34;;;;;;;3.13;2.40;;;;;;;;;;5088916;28;20479;-49
2023/02/28 04:30:01;;;;;;;3.53;3.00;;;;;;;;;;5089174;28;20781;-49
2023/02/28 04:32:27;;;;;;;2.57;2.00;;;;;;;;;;5085890;28;20854;-49
2023/02/28 04:34:53;;;;;;;3.33;2.50;;;;;;;;;;5080780;28;20429;-49
2023/02/28 04:37:19;;;;;;;2.47;2.27;;;;;;;;;;5086015;28;20417;-49
2023/02/28 04:39:45;;;;;;;3.30;2.43;;;;;;;;;;5082677;28;20431;-49
2023/02/28 04:42:11;;;;;;;2.87;2.13;;;;;;;;;;5083930;28;20469;-49
2023/02/28 04:44:37;;;;;;;4.67;2.67;;;;;;;;;;5085824;28;21657;-49
2023/02/28 04:47:03;;;;;;;2.40;2.20;;;;;;;;;;5077273;28;20420;-49
2023/02/28 04:49:30;;;;;;;3.73;2.33;;;;;;;;;;5085879;28;20433;-49
2023/02/28 04:51:56;;;;;;;2.87;2.50;;;;;;;;;;5085289;28;20432;-49
2023/02/28 04:54:22;;;;;;;3.17;2.20;;;;;;;;;;5084672;28;20441;-49
2023/02/28 04:56:49;;;;;;;2.37;2.13;;;;;;;;;;5089599;28;20939;-49
2023/02/28 04:59:15;;;;;;;5.57;2.87;;;;;;;;;;5087922;28;20449;-49
2023/02/28 05:01:45;;;;;;;2.53;2.30;;;;;;;;;;5086112;28;20968;-49
2023/02/28 05:04:11;;;;;;;2.80;2.53;;;;;;;;;;5078347;28;20461;-49
2023/02/28 05:06:37;;;;;;;5.20;2.27;;;;;;;;;;5084947;28;20964;-50
2023/02/28 05:09:03;;;;;;;3.03;2.30;;;;;;;;;;5080581;28;20457;-49
2023/02/28 05:11:34;;;;;;;2.80;1.97;;;;;;;;;;5091612;28;20448;-49
2023/02/28 05:14:01;;;;;;;4.13;2.20;;;;;;;;;;5093155;28;20202;-49
2023/02/28 05:16:27;;;;;;;2.97;2.30;;;;;;;;;;5087951;28;20990;-49
2023/02/28 05:18:53;;;;;;;4.97;2.80;;;;;;;;;;5089550;28;20422;-49
2023/02/28 05:21:24;;;;;;;4.30;2.77;;;;;;;;;;5089907;28;20698;-49
2023/02/28 05:23:50;;;;;;;2.30;2.00;;;;;;;;;;5075691;28;20425;-49
2023/02/28 05:26:16;;;;;;;2.57;2.10;;;;;;;;;;5096602;28;20928;-49
2023/02/28 05:28:42;;;;;;;3.67;2.20;;;;;;;;;;5084653;28;20948;-49
2023/02/28 05:31:11;;;;;;;2.83;2.13;;;;;;;;;;5085969;28;20455;-49
2023/02/28 05:33:37;;;;;;;2.80;2.07;;;;;;;;;;5091283;28;20439;-50
2023/02/28 05:36:03;;;;;;;2.43;1.83;;;;;;;;;;5086886;28;20421;-49
2023/02/28 05:38:29;;;;;;;2.40;1.70;;;;;;;;;;5081622;28;20803;-49
2023/02/28 05:40:56;;;;;;;3.30;2.17;;;;;;;;;;5092303;28;20429;-49
2023/02/28 05:43:22;;;;;;;2.40;2.00;;;;;;;;;;5090839;28;20457;-50
2023/02/28 05:45:48;;;;;;;2.50;2.23;;;;;;;;;;5086733;28;20872;-49
2023/02/28 05:48:14;;;;;;;1.90;1.80;;;;;;;;;;5084896;28;20460;-50
2023/02/28 05:50:40;;;;;;;4.83;2.60;;;;;;;;;;5085265;28;20837;-49
2023/02/28 05:53:06;;;;;;;2.73;2.00;;;;;;;;;;5087611;28;20429;-49
2023/02/28 05:55:33;;;;;;;2.17;1.97;;;;;;;;;;5083321;28;20474;-51
2023/02/28 05:57:59;;;;;;;4.33;2.43;;;;;;;;;;5091284;28;20505;-49
2023/02/28 06:00:25;;;;;;;2.70;1.90;;;;;;;;;;5089143;28;20414;-50
2023/02/28 06:02:53;;;;;;;1.87;1.77;;;;;;;;;;5091894;28;20479;-49
2023/02/28 06:05:19;;;;;;;2.93;2.17;;;;;;;;;;5091742;28;20426;-49
2023/02/28 06:07:46;;;;;;;2.40;2.20;;;;;;;;;;5092718;28;20511;-49
2023/02/28 06:10:12;;;;;;;2.00;1.70;;;;;;;;;;5087683;28;20426;-49
2023/02/28 06:12:39;;;;;;;2.70;2.27;;;;;;;;;;5092333;28;20456;-50
2023/02/28 06:15:05;;;;;;;2.43;2.20;;;;;;;;;;5087098;28;20504;-50
2023/02/28 06:17:31;;;;;;;2.20;2.00;;;;;;;;;;5087655;28;20473;-50
2023/02/28 06:19:57;;;;;;;2.30;2.10;;;;;;;;;;5090905;28;20433;-49
2023/02/28 06:22:23;;;;;;;2.43;1.90;;;;;;;;;;5089576;28;20461;-50
2023/02/28 06:24:49;;;;;;;2.63;2.07;;;;;;;;;;5091466;28;20426;-49
2023/02/28 06:27:15;;;;;;;3.40;2.37;;;;;;;;;;5090848;28;20523;-50
2023/02/28 06:29:42;;;;;;;2.07;1.87;;;;;;;;;;5085078;28;20857;-49
2023/02/28 06:32:08;;;;;;;2.40;2.13;;;;;;;;;;5091058;28;20807;-49
2023/02/28 06:34:34;;;;;;;2.27;2.07;;;;;;;;;;5090108;28;20959;-50
2023/02/28 06:37:02;;;;;;;2.53;2.10;;;;;;;;;;5091000;28;20425;-50
2023/02/28 06:39:28;;;;;;;2.73;2.20;;;;;;;;;;5088608;28;20494;-49
2023/02/28 06:41:54;;;;;;;2.53;2.13;;;;;;;;;;5088974;28;20465;-50
2023/02/28 06:44:20;;;;;;;3.73;2.57;;;;;;;;;;5086275;28;20436;-49
2023/02/28 06:46:46;;;;;;;3.03;2.50;;;;;;;;;;5083370;28;20426;-49
2023/02/28 06:49:13;;;;;;;2.27;1.70;;;;;;;;;;5088802;28;20427;-50
2023/02/28 06:51:41;;;;;;;2.50;1.90;;;;;;;;;;5087493;28;20436;-51
2023/02/28 06:54:08;;;;;;;2.60;2.33;;;;;;;;;;5087818;28;20429;-52
2023/02/28 06:56:35;;;;;;;3.10;2.27;;;;;;;;;;5086734;28;20434;-51
2023/02/28 06:59:01;;;;;;;3.60;2.43;;;;;;;;;;5082254;28;20934;-51
2023/02/28 07:01:27;;;;;;;2.20;2.00;;;;;;;;;;5088372;28;20510;-51
2023/02/28 07:03:54;;;;;;;3.00;2.43;;;;;;;;;;5092717;28;20464;-51
2023/02/28 07:06:22;;;;;;;3.10;2.40;;;;;;;;;;5089702;28;20436;-52
2023/02/28 07:08:48;;;;;;;4.50;1.80;;;;;;;;;;5090152;28;20827;-51
2023/02/28 07:11:15;;;;;;;2.73;2.37;;;;;;;;;;5079186;28;20472;-51
2023/02/28 07:13:41;;;;;;;2.70;1.87;;;;;;;;;;5084680;28;20433;-51
2023/02/28 07:16:08;;;;;;;2.73;2.17;;;;;;;;;;5080227;28;20438;-51
2023/02/28 07:18:34;;;;;;;5.83;2.50;;;;;;;;;;5075701;28;20434;-51
2023/02/28 07:21:05;;;;;;;3.47;2.07;;;;;;;;;;5084997;28;20457;-51
2023/02/28 07:23:31;;;;;;;3.50;2.23;;;;;;;;;;5090367;28;20406;-52
2023/02/28 07:25:57;;;;;;;2.27;2.07;;;;;;;;;;5090363;28;20932;-51
2023/02/28 07:28:23;;;;;;;2.07;1.83;;;;;;;;;;5086288;28;20528;-51
2023/02/28 07:30:49;;;;;;;2.37;2.17;;;;;;;;;;5081209;28;20432;-51
2023/02/28 07:33:16;;;;;;;2.50;2.30;;;;;;;;;;5084946;28;20423;-51
2023/02/28 07:35:42;;;;;;;3.63;2.00;;;;;;;;;;5085870;28;20522;-52
2023/02/28 07:38:08;;;;;;;2.97;2.10;;;;;;;;;;5081709;28;20422;-51
2023/02/28 07:40:35;;;;;;;3.70;2.40;;;;;;;;;;5085203;28;20521;-51
2023/02/28 07:43:01;;;;;;;3.23;2.60;;;;;;;;;;5086833;28;20799;-52
2023/02/28 07:45:34;;;;;;;2.60;2.00;;;;;;;;;;5084373;28;20453;-52
2023/02/28 07:48:00;;;;;;;2.60;2.40;;;;;;;;;;5069904;28;20968;-51
2023/02/28 07:50:28;;;;;;;2.30;2.10;;;;;;;;;;5078909;28;20427;-51
2023/02/28 07:52:55;;;;;;;2.23;2.03;;;;;;;;;;5085438;28;20425;-51
2023/02/28 07:55:21;;;;;;;2.10;1.90;;;;;;;;;;5087503;28;20940;-51
2023/02/28 07:57:47;;;;;;;2.00;1.87;;;;;;;;;;5077503;28;21027;-51
2023/02/28 08:00:13;;;;;;;2.20;2.00;;;;;;;;;;5079986;28;20430;-51
2023/02/28 08:02:39;;;;;;;2.27;1.87;;;;;;;;;;5085416;28;20524;-51
2023/02/28 08:05:06;;;;;;;1.87;1.70;;;;;;;;;;5085239;28;20462;-51
2023/02/28 08:07:33;;;;;;;4.13;2.10;;;;;;;;;;5090646;28;20495;-51
2023/02/28 08:09:59;;;;;;;2.07;1.87;;;;;;;;;;5084116;28;20520;-52
2023/02/28 08:12:25;;;;;;;2.33;1.87;;;;;;;;;;5077048;28;20452;-51
2023/02/28 08:14:51;;;;;;;2.30;2.07;;;;;;;;;;5089190;28;20440;-51
2023/02/28 08:17:17;;;;;;;2.30;1.63;;;;;;;;;;5085943;28;20594;-51
2023/02/28 08:19:45;;;;;;;1.87;1.73;;;;;;;;;;5083827;28;20425;-52
2023/02/28 08:22:11;;;;;;;4.17;2.47;;;;;;;;;;5078378;28;20508;-51
2023/02/28 08:24:38;;;;;;;2.60;1.77;;;;;;;;;;5082632;28;20465;-51
2023/02/28 08:27:04;;;;;;;3.37;1.77;;;;;;;;;;5076608;28;20433;-52
2023/02/28 08:29:30;;;;;;;1.93;1.77;;;;;;;;;;5081332;28;20959;-52
2023/02/28 08:31:56;;;;;;;3.07;2.13;;;;;;;;;;5077712;28;20512;-51
2023/02/28 08:34:22;;;;;;;1.87;1.67;;;;;;;;;;5083443;28;20448;-52
2023/02/28 08:36:49;;;;;;;3.23;1.87;;;;;;;;;;5085555;28;20770;-51
2023/02/28 08:39:15;;;;;;;2.07;1.73;;;;;;;;;;5086192;28;20437;-51
2023/02/28 08:41:42;;;;;;;4.33;2.50;;;;;;;;;;5086387;28;20461;-51
2023/02/28 08:44:08;;;;;;;2.77;1.80;;;;;;;;;;5078452;28;20464;-51
2023/02/28 08:46:34;;;;;;;2.40;2.20;;;;;;;;;;5083844;28;20458;-52
2023/02/28 08:49:01;;;;;;;2.53;2.07;;;;;;;;;;5084512;28;20788;-52
2023/02/28 08:51:28;;;;;;;2.90;2.10;;;;;;;;;;5088490;28;20434;-52
2023/02/28 08:53:55;;;;;;;1.87;1.67;;;;;;;;;;5063547;28;20529;-52
2023/02/28 08:56:21;;;;;;;2.87;1.90;;;;;;;;;;5081342;28;20528;-52
2023/02/28 08:58:48;;;;;;;2.70;1.97;;;;;;;;;;5083017;28;20426;-51
2023/02/28 09:01:15;;;;;;;2.83;1.80;;;;;;;;;;5082364;28;20457;-51
2023/02/28 09:03:41;;;;;;;2.13;1.93;;;;;;;;;;5082720;28;20544;-52
2023/02/28 09:06:08;;;;;;;2.53;2.00;;;;;;;;;;5087934;28;22295;-52
2023/02/28 09:08:34;;;;;;;2.33;1.80;;;;;;;;;;5084144;28;20430;-51
2023/02/28 09:11:01;;;;;;;3.27;2.00;;;;;;;;;;5078602;28;20467;-52
2023/02/28 09:13:28;;;;;;;2.07;1.87;;;;;;;;;;5077814;28;20414;-50
2023/02/28 09:15:54;;;;;;;2.10;1.87;;;;;;;;;;5087367;28;20912;-50
2023/02/28 09:18:20;;;;;;;2.60;2.23;;;;;;;;;;5076442;28;20433;-51
2023/02/28 09:20:46;;;;;;;1.97;1.63;;;;;;;;;;5086884;28;20461;-51
2023/02/28 09:23:13;;;;;;;2.37;2.00;;;;;;;;;;5086373;28;20465;-50
2023/02/28 09:25:47;;;;;;;2.20;2.00;;;;;;;;;;5077334;28;20442;-50
2023/02/28 09:28:15;;;;;;;2.17;1.60;;;;;;;;;;5078124;28;20446;-50
2023/02/28 09:30:41;;;;;;;1.97;1.80;;;;;;;;;;5077736;28;20520;-50
2023/02/28 09:33:07;;;;;;;2.13;1.83;;;;;;;;;;5082781;28;20912;-50
2023/02/28 09:35:34;;;;;;;2.63;1.90;;;;;;;;;;5085762;28;20421;-50
2023/02/28 09:38:02;;;;;;;3.30;1.80;;;;;;;;;;5073449;28;20535;-50
2023/02/28 09:40:28;;;;;;;2.03;1.80;;;;;;;;;;5085688;28;20461;-50
2023/02/28 09:42:55;;;;;;;2.27;2.03;;;;;;;;;;5080159;28;20581;-52
2023/02/28 09:45:27;;;;;;;3.23;1.93;;;;;;;;;;5081735;28;20425;-50
2023/02/28 09:47:55;;;;;;;2.17;1.60;;;;;;;;;;5077351;28;20489;-50
2023/02/28 09:50:32;;;;;;;3.50;1.83;;;;;;;;;;5080674;28;20430;-50
2023/02/28 09:52:59;;;;;;;4.53;1.87;;;;;;;;;;5082136;28;20422;-50
2023/02/28 09:55:25;;;;;;;1.73;1.63;;;;;;;;;;5077342;28;20495;-50
2023/02/28 09:57:52;;;;;;;1.90;1.80;;;;;;;;;;5084248;28;20902;-50
2023/02/28 10:00:36;;;;;;;2.63;1.87;;;;;;;;;;5086745;28;20192;-50
2023/02/28 10:03:20;;;;;;;2.10;1.90;;;;;;;;;;5080213;28;20976;-50
2023/02/28 10:05:53;;;;;;;2.30;1.77;;;;;;;;;;5078689;28;20476;-50
2023/02/28 10:08:26;;;;;;;2.17;1.77;;;;;;;;;;5085215;28;20417;-50
2023/02/28 10:10:55;;;;;;;1.80;1.50;;;;;;;;;;5088755;28;20534;-51
2023/02/28 10:13:21;;;;;;;3.57;2.10;;;;;;;;;;5084178;28;20434;-50
2023/02/28 10:15:50;;;;;;;2.23;1.90;;;;;;;;;;5084344;28;20434;-50
2023/02/28 10:18:20;;;;;;;2.63;1.70;;;;;;;;;;5088581;28;20218;-50
2023/02/28 10:20:48;;;;;;;2.37;1.63;;;;;;;;;;5084800;28;20459;-51
2023/02/28 10:23:20;;;;;;;1.63;1.50;;;;;;;;;;5084016;28;20468;-51
2023/02/28 10:25:50;;;;;;;3.03;1.93;;;;;;;;;;5082692;28;20441;-51
2023/02/28 10:28:20;;;;;;;1.80;1.50;;;;;;;;;;5090112;28;20831;-51
2023/02/28 10:30:47;;;;;;;1.80;1.70;;;;;;;;;;5087291;28;20461;-50
2023/02/28 10:33:34;;;;;;;1.83;1.60;;;;;;;;;;5086298;28;20430;-50
2023/02/28 10:36:00;;;;;;;1.67;1.57;;;;;;;;;;5079360;28;20427;-50
2023/02/28 10:38:36;;;;;;;2.83;1.27;;;;;;;;;;5083487;28;20475;-50
2023/02/28 10:41:29;;;;;;;3.57;1.63;;;;;;;;;;5083432;28;20454;-50
2023/02/28 10:44:14;;;;;;;1.37;1.27;;;;;;;;;;5077120;28;20261;-51
2023/02/28 10:46:41;;;;;;;1.77;1.50;;;;;;;;;;5072678;28;20415;-50
2023/02/28 10:49:12;;;;;;;1.50;1.40;;;;;;;;;;5073015;28;20918;-50
2023/02/28 10:51:40;;;;;;;1.60;1.40;;;;;;;;;;5071743;28;20457;-50
2023/02/28 10:54:06;;;;;;;1.67;1.20;;;;;;;;;;5083296;28;20614;-51
2023/02/28 10:56:32;;;;;;;1.70;1.50;;;;;;;;;;5088291;28;20509;-50
2023/02/28 10:59:00;;;;;;;1.70;1.60;;;;;;;;;;5076447;28;20926;-50
2023/02/28 11:01:32;;;;;;;2.43;1.33;;;;;;;;;;5089354;28;20314;-50
2023/02/28 11:03:58;;;;;;;1.57;1.47;;;;;;;;;;5089599;28;20565;-50
2023/02/28 11:06:30;;;;;;;1.77;1.50;;;;;;;;;;5085171;28;20192;-50
2023/02/28 11:08:57;;;;;;;1.50;1.40;;;;;;;;;;5089265;28;20176;-51
2023/02/28 11:11:25;;;;;;;1.97;1.50;;;;;;;;;;5079979;28;20212;-50
2023/02/28 11:13:53;;;;;;;1.30;1.20;;;;;;;;;;5075925;28;20183;-50
2023/02/28 11:16:19;;;;;;;1.30;1.20;;;;;;;;;;5088302;28;20429;-50
2023/02/28 11:18:50;;;;;;;2.67;1.90;;;;;;;;;;5089853;28;20714;-51
2023/02/28 11:21:21;;;;;;;1.40;1.30;;;;;;;;;;5083210;28;20700;-50
2023/02/28 11:23:49;;;;;;;1.57;1.47;;;;;;;;;;5083928;28;20980;-50
2023/02/28 11:26:16;;;;;;;1.73;1.40;;;;;;;;;;5089197;28;20425;-51
2023/02/28 11:28:42;;;;;;;1.77;1.50;;;;;;;;;;5086674;28;20210;-50
2023/02/28 11:31:14;;;;;;;1.50;1.40;;;;;;;;;;5084985;28;20521;-50
2023/02/28 11:33:54;;;;;;;1.33;1.23;;;;;;;;;;5078795;28;20325;-50
2023/02/28 11:36:24;;;;;;;2.13;1.80;;;;;;;;;;5079600;28;20536;-50
2023/02/28 11:38:50;;;;;;;1.47;1.37;;;;;;;;;;5080576;28;20176;-50
2023/02/28 11:41:37;;;;;;;1.63;1.53;;;;;;;;;;5090052;28;20180;-50
2023/02/28 11:44:03;;;;;;;1.37;1.27;;;;;;;;;;5084929;28;20171;-50
2023/02/28 11:46:39;;;;;;;1.97;1.60;;;;;;;;;;5085785;28;20175;-51
2023/02/28 11:49:05;;;;;;;1.60;1.50;;;;;;;;;;5088484;28;20171;-50
2023/02/28 11:51:36;;;;;;;1.50;1.40;;;;;;;;;;5082937;28;20237;-55
2023/02/28 11:54:02;;;;;;;2.53;1.80;;;;;;;;;;5077897;28;21195;-55
2023/02/28 11:56:40;;;;;;;1.50;1.40;;;;;;;;;;5078674;28;20237;-55
2023/02/28 11:59:25;;;;;;;1.20;1.10;;;;;;;;;;5085948;28;20857;-55
2023/02/28 12:02:00;;;;;;;2.13;1.67;;;;;;;;;;5070538;28;20303;-55
2023/02/28 12:04:30;;;;;;;2.20;1.40;;;;;;;;;;5072666;28;21241;-55
2023/02/28 12:06:57;;;;;;;1.93;1.50;;;;;;;;;;5086559;28;20232;-55
2023/02/28 12:09:41;;;;;;;1.80;1.70;;;;;;;;;;5082933;28;20188;-55
2023/02/28 12:12:17;;;;;;;1.93;1.70;;;;;;;;;;5089902;28;20212;-55
2023/02/28 12:14:46;;;;;;;1.70;1.53;;;;;;;;;;5080377;28;20175;-56
2023/02/28 12:17:12;;;;;;;1.90;1.50;;;;;;;;;;5079771;28;20176;-56
2023/02/28 12:20:08;;;;;;;1.33;1.23;;;;;;;;;;5078077;28;20183;-56
2023/02/28 12:22:53;;;;;;;1.60;1.43;;;;;;;;;;5055386;28;20598;-56
2023/02/28 12:25:22;;;;;;;1.67;1.57;;;;;;;;;;5078373;28;20190;-55
2023/02/28 12:27:50;;;;;;;1.50;1.40;;;;;;;;;;5078663;28;20669;-55
2023/02/28 12:30:27;;;;;;;1.57;1.43;;;;;;;;;;5085439;28;20171;-55
2023/02/28 12:32:56;;;;;;;1.70;1.60;;;;;;;;;;5087134;28;20218;-55
2023/02/28 12:35:26;;;;;;;1.60;1.50;;;;;;;;;;5087417;28;20532;-55
2023/02/28 12:38:03;;;;;;;1.77;1.47;;;;;;;;;;5083311;28;20861;-56
2023/02/28 12:40:42;;;;;;;1.83;1.57;;;;;;;;;;5081212;28;20175;-55
2023/02/28 12:43:09;;;;;;;2.00;1.57;;;;;;;;;;5079756;28;20199;-55
2023/02/28 12:45:43;;;;;;;1.50;1.40;;;;;;;;;;5078164;28;20590;-56
2023/02/28 12:48:13;;;;;;;3.50;2.17;;;;;;;;;;5082344;28;20175;-55
2023/02/28 12:50:39;;;;;;;1.80;1.50;;;;;;;;;;5084058;28;20176;-55
2023/02/28 12:53:28;;;;;;;1.93;1.70;;;;;;;;;;5084549;28;20329;-55
2023/02/28 12:55:58;;;;;;;1.67;1.53;;;;;;;;;;5078622;28;20605;-55
2023/02/28 12:58:42;;;;;;;1.73;1.63;;;;;;;;;;5085771;28;20704;-55
2023/02/28 13:01:11;;;;;;;1.83;1.73;;;;;;;;;;5084851;28;21908;-52
2023/02/28 13:03:48;;;;;;;2.60;1.63;;;;;;;;;;5077291;28;20255;-52
2023/02/28 13:06:20;;;;;;;2.00;1.90;;;;;;;;;;5079903;28;20218;-52
2023/02/28 13:09:04;;;;;;;1.77;1.50;;;;;;;;;;5081351;28;20194;-52
2023/02/28 13:11:33;;;;;;;1.83;1.73;;;;;;;;;;5082609;28;20294;-52
2023/02/28 13:14:00;;;;;;;2.00;1.57;;;;;;;;;;5088994;28;20183;-52
2023/02/28 13:16:26;;;;;;;1.80;1.70;;;;;;;;;;5079232;28;20184;-52
2023/02/28 13:18:54;;;;;;;2.17;2.00;;;;;;;;;;5080307;28;20192;-52
2023/02/28 13:21:44;;;;;;;2.57;2.00;;;;;;;;;;5079643;28;20188;-52
2023/02/28 13:24:10;;;;;;;3.07;2.07;;;;;;;;;;5065438;28;20604;-52
2023/02/28 13:26:36;;;;;;;1.90;1.70;;;;;;;;;;5077568;28;20188;-52
2023/02/28 13:29:11;;;;;;;2.23;1.87;;;;;;;;;;5077565;28;20180;-51
2023/02/28 13:31:56;;;;;;;1.80;1.70;;;;;;;;;;5075665;28;20239;-52
2023/02/28 13:34:22;;;;;;;1.77;1.60;;;;;;;;;;5073852;28;20176;-52
2023/02/28 13:36:48;;;;;;;3.87;1.90;;;;;;;;;;5093260;28;20186;-52
2023/02/28 13:39:33;;;;;;;3.57;1.67;;;;;;;;;;5086472;28;20184;-52
2023/02/28 13:42:19;;;;;;;2.27;2.07;;;;;;;;;;5092703;28;20738;-52
2023/02/28 13:45:03;;;;;;;1.80;1.70;;;;;;;;;;5077172;28;20199;-52
2023/02/28 13:47:29;;;;;;;1.60;1.50;;;;;;;;;;5071969;28;20179;-52
2023/02/28 13:50:14;;;;;;;3.87;1.70;;;;;;;;;;5077615;28;20172;-52
2023/02/28 13:53:00;;;;;;;1.70;1.60;;;;;;;;;;5090572;28;20268;-52
2023/02/28 13:55:35;;;;;;;1.60;1.50;;;;;;;;;;5090235;28;20188;-52
2023/02/28 13:58:20;;;;;;;2.77;2.00;;;;;;;;;;5084443;28;20414;-52
2023/02/28 14:01:04;;;;;;;2.10;1.90;;;;;;;;;;5079835;28;20717;-52
2023/02/28 14:03:33;;;;;;;1.87;1.60;;;;;;;;;;5084301;28;20563;-52
2023/02/28 14:06:17;;;;;;;2.37;2.07;;;;;;;;;;5091423;28;20512;-52
2023/02/28 14:08:50;;;;;;;2.10;1.90;;;;;;;;;;5075089;28;20176;-52
2023/02/28 14:11:25;;;;;;;1.73;1.63;;;;;;;;;;5087727;28;20269;-52
2023/02/28 14:13:51;;;;;;;2.27;1.90;;;;;;;;;;5088705;28;20225;-52
2023/02/28 14:16:20;;;;;;;4.50;1.80;;;;;;;;;;5077416;28;20604;-52
2023/02/28 14:19:01;;;;;;;2.50;1.70;;;;;;;;;;5082653;28;20216;-52
2023/02/28 14:21:32;;;;;;;2.83;1.87;;;;;;;;;;5088306;28;20222;-52
2023/02/28 14:24:17;;;;;;;1.80;1.70;;;;;;;;;;5086853;28;20540;-52
2023/02/28 14:27:01;;;;;;;2.57;1.80;;;;;;;;;;5083547;28;20184;-52
2023/02/28 14:29:34;;;;;;;2.20;2.00;;;;;;;;;;5090884;28;20184;-52
2023/02/28 14:32:06;;;;;;;1.80;1.60;;;;;;;;;;5093344;28;20203;-52
2023/02/28 14:34:54;;;;;;;1.97;1.70;;;;;;;;;;5087008;28;20176;-52
2023/02/28 14:37:24;;;;;;;1.70;1.60;;;;;;;;;;5083447;28;20186;-52
2023/02/28 14:39:51;;;;;;;2.10;1.90;;;;;;;;;;5083730;28;20191;-55
2023/02/28 14:42:30;;;;;;;3.17;2.10;;;;;;;;;;5086733;28;20214;-56
2023/02/28 14:44:56;;;;;;;2.50;1.87;;;;;;;;;;5087036;28;20179;-55
2023/02/28 14:47:24;;;;;;;2.20;2.00;;;;;;;;;;5079441;28;20202;-55
2023/02/28 14:49:50;;;;;;;2.43;2.23;;;;;;;;;;5079716;28;20172;-55
2023/02/28 14:52:19;;;;;;;3.47;2.10;;;;;;;;;;5091178;28;20168;-55
2023/02/28 14:54:46;;;;;;;2.40;2.20;;;;;;;;;;5091598;28;20156;-55
2023/02/28 14:57:23;;;;;;;3.47;2.30;;;;;;;;;;5091164;28;20186;-55